createdAt,value
2023-03-10T00:00:15.372Z,8.60
2023-03-10T00:01:48.330Z,8.60
2023-03-10T00:03:21.231Z,8.60
2023-03-10T00:04:54.573Z,8.60
2023-03-10T00:06:28.474Z,8.60
2023-03-10T00:08:01.440Z,8.70
2023-03-10T00:09:34.516Z,8.70
2023-03-10T00:11:08.116Z,8.70
2023-03-10T00:12:41.162Z,8.70
2023-03-10T00:14:14.867Z,8.70
2023-03-10T00:15:49.677Z,8.70
2023-03-10T00:17:22.714Z,8.70
2023-03-10T00:18:56.229Z,8.80
2023-03-10T00:20:29.347Z,8.80
2023-03-10T00:22:03.819Z,8.80
2023-03-10T00:23:37.561Z,8.80
2023-03-10T00:25:11.863Z,8.80
2023-03-10T00:26:46.627Z,8.70
2023-03-10T00:28:19.555Z,8.70
2023-03-10T00:29:52.738Z,8.70
2023-03-10T00:31:27.632Z,8.70
2023-03-10T00:33:00.570Z,8.80
2023-03-10T00:34:33.835Z,8.80
2023-03-10T00:36:11.379Z,8.80
2023-03-10T00:37:44.382Z,8.70
2023-03-10T00:39:17.596Z,8.70
2023-03-10T00:40:49.553Z,8.70
2023-03-10T00:42:23.878Z,8.70
2023-03-10T00:43:57.335Z,8.80
2023-03-10T00:45:30.257Z,8.80
2023-03-10T00:47:03.361Z,8.80
2023-03-10T00:48:37.076Z,8.80
2023-03-10T00:50:11.548Z,8.90
2023-03-10T00:51:44.559Z,8.80
2023-03-10T00:53:17.774Z,8.80
2023-03-10T00:54:51.401Z,8.80
2023-03-10T00:56:25.693Z,8.80
2023-03-10T00:58:00.295Z,8.80
2023-03-10T00:59:47.745Z,8.80
2023-03-10T01:01:24.633Z,8.70
2023-03-10T01:02:57.524Z,8.80
2023-03-10T01:04:30.538Z,8.80
2023-03-10T01:06:03.454Z,8.80
2023-03-10T01:07:36.364Z,8.80
2023-03-10T01:09:09.316Z,8.80
2023-03-10T01:10:42.301Z,8.80
2023-03-10T01:12:15.311Z,8.80
2023-03-10T01:13:50.583Z,8.80
2023-03-10T01:15:23.751Z,8.80
2023-03-10T01:16:56.719Z,8.80
2023-03-10T01:18:29.579Z,8.80
2023-03-10T01:20:02.440Z,8.90
2023-03-10T01:21:37.179Z,8.80
2023-03-10T01:23:14.381Z,8.90
2023-03-10T01:24:47.310Z,8.90
2023-03-10T01:26:20.707Z,8.90
2023-03-10T01:27:53.415Z,8.90
2023-03-10T01:29:27.747Z,8.90
2023-03-10T01:31:01.004Z,8.90
2023-03-10T01:32:34.096Z,8.90
2023-03-10T01:34:07.092Z,9.00
2023-03-10T01:35:40.774Z,9.00
2023-03-10T01:37:13.786Z,9.00
2023-03-10T01:38:47.445Z,9.00
2023-03-10T01:40:19.749Z,8.90
2023-03-10T01:41:52.949Z,8.90
2023-03-10T01:43:29.989Z,8.90
2023-03-10T01:45:11.104Z,8.90
2023-03-10T01:46:51.730Z,8.90
2023-03-10T01:48:24.434Z,8.90
2023-03-10T01:49:57.596Z,8.90
2023-03-10T01:51:31.996Z,8.90
2023-03-10T01:53:05.135Z,8.90
2023-03-10T01:54:43.838Z,8.90
2023-03-10T01:56:16.072Z,8.90
2023-03-10T01:57:52.600Z,8.90
2023-03-10T01:59:27.700Z,9.00
2023-03-10T02:01:01.066Z,8.90
2023-03-10T02:02:35.755Z,9.00
2023-03-10T02:04:12.736Z,9.00
2023-03-10T02:05:49.713Z,9.00
2023-03-10T02:07:27.605Z,8.90
2023-03-10T02:09:01.935Z,9.00
2023-03-10T02:10:34.916Z,8.90
2023-03-10T02:12:10.282Z,8.90
2023-03-10T02:13:44.154Z,8.90
2023-03-10T02:15:17.075Z,8.90
2023-03-10T02:16:51.499Z,8.90
2023-03-10T02:18:24.277Z,8.80
2023-03-10T02:20:13.157Z,8.80
2023-03-10T02:21:50.796Z,8.80
2023-03-10T02:23:29.848Z,8.80
2023-03-10T02:25:14.672Z,8.80
2023-03-10T02:26:54.204Z,8.80
2023-03-10T02:28:28.835Z,8.70
2023-03-10T02:30:06.639Z,8.70
2023-03-10T02:31:40.518Z,8.70
2023-03-10T02:33:17.878Z,8.70
2023-03-10T02:34:50.844Z,8.70
2023-03-10T02:36:26.012Z,8.80
2023-03-10T02:37:59.491Z,8.70
2023-03-10T02:39:32.436Z,8.80
2023-03-10T02:41:17.456Z,8.80
2023-03-10T02:42:50.718Z,8.80
2023-03-10T02:44:26.741Z,8.80
2023-03-10T02:46:02.523Z,8.80
2023-03-10T02:47:35.547Z,8.80
2023-03-10T02:49:10.755Z,8.80
2023-03-10T02:50:47.338Z,8.80
2023-03-10T02:52:28.759Z,8.80
2023-03-10T02:54:01.819Z,8.80
2023-03-10T02:55:34.896Z,8.80
2023-03-10T02:57:07.806Z,8.90
2023-03-10T02:58:39.789Z,8.90
2023-03-10T03:00:15.235Z,8.90
2023-03-10T03:01:48.184Z,8.90
2023-03-10T03:03:22.758Z,8.90
2023-03-10T03:04:55.698Z,8.90
2023-03-10T03:06:29.508Z,8.90
2023-03-10T03:08:02.549Z,8.90
2023-03-10T03:09:35.694Z,8.90
2023-03-10T03:11:08.609Z,8.90
2023-03-10T03:12:41.540Z,8.90
2023-03-10T03:14:14.501Z,8.80
2023-03-10T03:15:49.069Z,8.80
2023-03-10T03:17:20.957Z,8.80
2023-03-10T03:18:53.996Z,8.80
2023-03-10T03:20:27.621Z,8.80
2023-03-10T03:22:00.576Z,8.80
2023-03-10T03:23:34.716Z,8.80
2023-03-10T03:25:08.109Z,8.80
2023-03-10T03:26:41.212Z,8.70
2023-03-10T03:28:14.195Z,8.90
2023-03-10T03:29:47.053Z,8.90
2023-03-10T03:31:23.161Z,8.80
2023-03-10T03:32:56.763Z,8.90
2023-03-10T03:34:29.642Z,8.90
2023-03-10T03:36:02.274Z,8.80
2023-03-10T03:37:35.289Z,8.80
2023-03-10T03:39:08.708Z,8.80
2023-03-10T03:40:42.295Z,8.80
2023-03-10T03:42:15.200Z,8.90
2023-03-10T03:43:48.179Z,8.80
2023-03-10T03:45:23.521Z,8.80
2023-03-10T03:46:57.862Z,8.80
2023-03-10T03:48:30.860Z,8.80
2023-03-10T03:50:03.955Z,8.80
2023-03-10T03:51:37.381Z,8.70
2023-03-10T03:53:10.266Z,8.70
2023-03-10T03:54:43.238Z,8.70
2023-03-10T03:56:16.137Z,8.70
2023-03-10T03:57:49.553Z,8.70
2023-03-10T03:59:22.276Z,8.70
2023-03-10T04:00:55.179Z,8.60
2023-03-10T04:02:29.511Z,8.70
2023-03-10T04:04:02.474Z,8.70
2023-03-10T04:05:35.424Z,8.70
2023-03-10T04:07:08.373Z,8.70
2023-03-10T04:08:42.032Z,8.60
2023-03-10T04:10:18.724Z,8.70
2023-03-10T04:11:51.640Z,8.60
2023-03-10T04:13:24.760Z,8.60
2023-03-10T04:14:57.895Z,8.60
2023-03-10T04:16:30.799Z,8.50
2023-03-10T04:18:05.233Z,8.50
2023-03-10T04:19:38.141Z,8.50
2023-03-10T04:21:11.085Z,8.50
2023-03-10T04:22:43.939Z,8.50
2023-03-10T04:24:16.888Z,8.50
2023-03-10T04:25:50.214Z,8.50
2023-03-10T04:27:23.222Z,8.50
2023-03-10T04:28:56.302Z,8.50
2023-03-10T04:30:30.032Z,8.50
2023-03-10T04:32:05.846Z,8.50
2023-03-10T04:33:40.341Z,8.60
2023-03-10T04:35:14.754Z,8.60
2023-03-10T04:36:47.710Z,8.70
2023-03-10T04:38:22.953Z,8.70
2023-03-10T04:39:57.129Z,8.80
2023-03-10T04:41:30.347Z,8.80
2023-03-10T04:43:05.351Z,8.90
2023-03-10T04:44:37.308Z,8.90
2023-03-10T04:46:10.368Z,9.00
2023-03-10T04:47:43.482Z,8.90
2023-03-10T04:49:17.798Z,9.00
2023-03-10T04:50:56.941Z,9.00
2023-03-10T04:52:31.872Z,9.00
2023-03-10T04:54:04.971Z,9.10
2023-03-10T04:55:39.043Z,9.10
2023-03-10T04:57:12.135Z,9.10
2023-03-10T04:58:45.431Z,9.10
2023-03-10T05:00:19.811Z,9.20
2023-03-10T05:01:53.716Z,9.30
2023-03-10T05:03:26.997Z,9.30
2023-03-10T05:05:01.450Z,9.30
2023-03-10T05:06:34.498Z,9.30
2023-03-10T05:08:08.128Z,9.40
2023-03-10T05:09:41.202Z,9.40
2023-03-10T05:11:14.299Z,9.30
2023-03-10T05:12:47.334Z,9.30
2023-03-10T05:14:20.413Z,9.30
2023-03-10T05:15:53.827Z,9.30
2023-03-10T05:17:27.611Z,9.30
2023-03-10T05:19:00.590Z,9.30
2023-03-10T05:20:35.442Z,9.30
2023-03-10T05:22:11.158Z,9.30
2023-03-10T05:23:44.066Z,9.30
2023-03-10T05:25:17.105Z,9.20
2023-03-10T05:26:50.038Z,9.20
2023-03-10T05:28:23.723Z,9.20
2023-03-10T05:29:56.975Z,9.10
2023-03-10T05:31:32.901Z,9.20
2023-03-10T05:33:05.928Z,9.10
2023-03-10T05:34:38.909Z,9.10
2023-03-10T05:36:15.012Z,9.00
2023-03-10T05:37:47.161Z,9.00
2023-03-10T05:39:20.233Z,8.90
2023-03-10T05:40:53.259Z,9.00
2023-03-10T05:42:26.166Z,8.90
2023-03-10T05:43:59.289Z,9.00
2023-03-10T05:45:32.248Z,9.00
2023-03-10T05:47:05.467Z,8.90
2023-03-10T05:48:39.300Z,8.90
2023-03-10T05:50:14.281Z,8.90
2023-03-10T05:51:48.560Z,8.90
2023-03-10T05:53:21.503Z,8.90
2023-03-10T05:54:54.765Z,8.90
2023-03-10T05:56:28.077Z,8.90
2023-03-10T05:58:00.891Z,8.90
2023-03-10T05:59:33.986Z,8.90
2023-03-10T06:01:07.663Z,8.90
2023-03-10T06:02:41.037Z,9.00
2023-03-10T06:04:14.054Z,9.00
2023-03-10T06:05:47.129Z,9.10
2023-03-10T06:07:24.695Z,9.10
2023-03-10T06:08:58.097Z,9.10
2023-03-10T06:10:40.004Z,9.20
2023-03-10T06:12:13.546Z,9.20
2023-03-10T06:13:46.513Z,9.30
2023-03-10T06:15:19.409Z,9.30
2023-03-10T06:16:54.521Z,9.40
2023-03-10T06:18:28.544Z,9.40
2023-03-10T06:20:01.941Z,9.50
2023-03-10T06:21:34.834Z,9.50
2023-03-10T06:23:09.118Z,9.60
2023-03-10T06:24:42.970Z,9.60
2023-03-10T06:26:18.052Z,9.60
2023-03-10T06:27:50.938Z,9.60
2023-03-10T06:29:23.803Z,9.60
2023-03-10T06:30:57.440Z,9.70
2023-03-10T06:32:30.495Z,9.70
2023-03-10T06:34:04.632Z,9.80
2023-03-10T06:35:37.770Z,9.80
2023-03-10T06:37:10.852Z,9.80
2023-03-10T06:38:45.157Z,9.90
2023-03-10T06:40:18.091Z,9.90
2023-03-10T06:41:50.986Z,9.90
2023-03-10T06:43:23.870Z,10.00
2023-03-10T06:44:56.966Z,10.00
2023-03-10T06:46:30.250Z,10.10
2023-03-10T06:48:03.279Z,10.10
2023-03-10T06:49:36.318Z,10.10
2023-03-10T06:51:11.578Z,10.20
2023-03-10T06:52:45.728Z,10.20
2023-03-10T06:54:20.147Z,10.20
2023-03-10T06:56:00.137Z,10.20
2023-03-10T06:57:33.177Z,10.20
2023-03-10T06:59:06.120Z,10.20
2023-03-10T07:00:40.048Z,10.20
2023-03-10T07:02:13.701Z,10.20
2023-03-10T07:03:46.588Z,10.20
2023-03-10T07:05:19.539Z,10.20
2023-03-10T07:06:52.771Z,10.30
2023-03-10T07:08:25.920Z,10.30
2023-03-10T07:10:00.226Z,10.20
2023-03-10T07:11:33.568Z,10.30
2023-03-10T07:13:06.666Z,10.20
2023-03-10T07:14:39.704Z,10.30
2023-03-10T07:16:12.660Z,10.30
2023-03-10T07:17:45.532Z,10.40
2023-03-10T07:19:18.402Z,10.40
2023-03-10T07:20:53.037Z,10.40
2023-03-10T07:22:26.004Z,10.40
2023-03-10T07:23:59.698Z,10.50
2023-03-10T07:25:36.462Z,10.50
2023-03-10T07:27:09.665Z,10.60
2023-03-10T07:28:42.962Z,10.60
2023-03-10T07:30:16.237Z,10.60
2023-03-10T07:31:49.215Z,10.60
2023-03-10T07:33:22.104Z,10.70
2023-03-10T07:34:55.036Z,10.70
2023-03-10T07:36:28.800Z,10.70
2023-03-10T07:38:01.822Z,10.70
2023-03-10T07:39:34.853Z,10.70
2023-03-10T07:41:10.320Z,10.60
2023-03-10T07:42:43.900Z,10.70
2023-03-10T07:44:16.827Z,10.70
2023-03-10T07:45:49.790Z,10.80
2023-03-10T07:47:22.820Z,10.90
2023-03-10T07:48:58.397Z,11.00
2023-03-10T07:50:31.368Z,11.10
2023-03-10T07:52:04.607Z,11.20
2023-03-10T07:53:37.995Z,11.30
2023-03-10T07:55:11.045Z,11.30
2023-03-10T07:56:45.332Z,11.40
2023-03-10T07:58:18.432Z,11.60
2023-03-10T07:59:51.445Z,11.60
2023-03-10T08:01:24.361Z,11.50
2023-03-10T08:02:57.331Z,11.50
2023-03-10T08:04:30.506Z,11.50
2023-03-10T08:06:05.533Z,11.50
2023-03-10T08:07:39.081Z,11.50
2023-03-10T08:09:12.029Z,11.60
2023-03-10T08:10:44.997Z,11.70
2023-03-10T08:12:19.641Z,11.70
2023-03-10T08:13:52.588Z,11.70
2023-03-10T08:15:26.357Z,11.70
2023-03-10T08:16:59.817Z,11.80
2023-03-10T08:18:33.285Z,11.80
2023-03-10T08:20:06.909Z,11.60
2023-03-10T08:21:39.822Z,11.70
2023-03-10T08:23:12.848Z,11.80
2023-03-10T08:24:45.706Z,11.90
2023-03-10T08:26:19.777Z,11.90
2023-03-10T08:27:54.104Z,11.90
2023-03-10T08:29:27.114Z,12.00
2023-03-10T08:31:05.349Z,11.90
2023-03-10T08:32:38.684Z,11.70
2023-03-10T08:34:11.912Z,11.80
2023-03-10T08:35:45.181Z,11.70
2023-03-10T08:37:18.381Z,11.80
2023-03-10T08:38:52.387Z,11.80
2023-03-10T08:40:25.751Z,12.00
2023-03-10T08:41:58.628Z,12.00
2023-03-10T08:43:33.001Z,12.00
2023-03-10T08:45:08.825Z,12.00
2023-03-10T08:46:45.224Z,12.00
2023-03-10T08:48:19.252Z,12.00
2023-03-10T08:49:52.314Z,12.10
2023-03-10T08:51:25.750Z,12.10
2023-03-10T08:52:59.100Z,12.20
2023-03-10T08:54:32.763Z,12.20
2023-03-10T08:56:06.882Z,12.30
2023-03-10T08:57:39.938Z,12.20
2023-03-10T08:59:14.304Z,12.10
2023-03-10T09:00:47.454Z,12.20
2023-03-10T09:02:22.059Z,12.10
2023-03-10T09:03:55.341Z,12.00
2023-03-10T09:05:28.899Z,12.00
2023-03-10T09:07:01.865Z,12.00
2023-03-10T09:08:34.985Z,11.80
2023-03-10T09:10:08.251Z,11.80
2023-03-10T09:11:42.152Z,11.80
2023-03-10T09:13:15.429Z,11.80
2023-03-10T09:14:49.750Z,11.80
2023-03-10T09:16:22.900Z,11.80
2023-03-10T09:17:56.554Z,11.90
2023-03-10T09:19:29.529Z,12.10
2023-03-10T09:21:02.840Z,12.30
2023-03-10T09:22:35.638Z,12.40
2023-03-10T09:24:08.989Z,12.40
2023-03-10T09:25:41.922Z,12.60
2023-03-10T09:27:15.139Z,12.70
2023-03-10T09:28:51.025Z,12.70
2023-03-10T09:30:26.018Z,12.80
2023-03-10T09:31:59.172Z,12.90
2023-03-10T09:33:33.135Z,13.00
2023-03-10T09:35:06.919Z,13.10
2023-03-10T09:36:40.055Z,13.20
2023-03-10T09:38:14.546Z,13.30
2023-03-10T09:39:47.543Z,13.10
2023-03-10T09:41:55.465Z,13.10
2023-03-10T09:43:32.463Z,13.20
2023-03-10T09:45:31.647Z,13.30
2023-03-10T09:47:28.132Z,13.40
2023-03-10T09:49:10.593Z,13.40
2023-03-10T09:50:45.431Z,13.70
2023-03-10T09:52:25.396Z,13.90
2023-03-10T09:54:11.625Z,13.90
2023-03-10T09:55:48.549Z,14.20
2023-03-10T09:57:24.026Z,14.40
2023-03-10T09:59:00.903Z,14.60
2023-03-10T10:00:40.090Z,14.80
2023-03-10T10:02:17.369Z,15.00
2023-03-10T10:03:53.970Z,14.90
2023-03-10T10:05:31.474Z,15.00
2023-03-10T10:07:12.518Z,15.00
2023-03-10T10:09:03.546Z,14.80
2023-03-10T10:10:38.462Z,14.50
2023-03-10T10:12:13.906Z,14.30
2023-03-10T10:13:47.122Z,14.10
2023-03-10T10:15:22.381Z,13.70
2023-03-10T10:17:03.905Z,13.60
2023-03-10T10:18:41.498Z,13.60
2023-03-10T10:20:20.792Z,13.70
2023-03-10T10:21:59.755Z,13.70
2023-03-10T10:23:41.312Z,13.60
2023-03-10T10:25:20.008Z,13.30
2023-03-10T10:26:53.089Z,13.00
2023-03-10T10:28:33.396Z,12.70
2023-03-10T10:30:32.712Z,12.40
2023-03-10T10:32:11.514Z,11.90
2023-03-10T10:33:56.426Z,11.60
2023-03-10T10:35:31.849Z,11.40
2023-03-10T10:37:21.092Z,11.20
2023-03-10T10:38:55.600Z,11.00
2023-03-10T10:40:30.364Z,10.80
2023-03-10T10:42:14.579Z,10.70
2023-03-10T10:43:47.948Z,10.60
2023-03-10T10:45:25.807Z,10.40
2023-03-10T10:46:59.024Z,10.30
2023-03-10T10:48:39.139Z,10.20
2023-03-10T10:50:19.778Z,10.00
2023-03-10T10:52:00.714Z,10.00
2023-03-10T10:53:35.195Z,9.80
2023-03-10T10:55:27.278Z,9.80
2023-03-10T10:57:01.896Z,9.80
2023-03-10T10:58:37.085Z,9.90
2023-03-10T11:00:25.161Z,10.10
2023-03-10T11:02:01.313Z,10.40
2023-03-10T11:03:37.933Z,10.80
2023-03-10T11:05:16.921Z,11.10
2023-03-10T11:06:51.086Z,11.40
2023-03-10T11:08:35.017Z,11.70
2023-03-10T11:10:13.548Z,12.10
2023-03-10T11:11:59.254Z,12.50
2023-03-10T11:13:40.329Z,12.70
2023-03-10T11:15:24.405Z,13.00
2023-03-10T11:17:03.885Z,13.30
2023-03-10T11:18:42.862Z,13.40
2023-03-10T11:20:24.625Z,13.50
2023-03-10T11:22:03.174Z,13.70
2023-03-10T11:23:43.249Z,13.70
2023-03-10T11:25:25.112Z,13.70
2023-03-10T11:27:06.009Z,13.70
2023-03-10T11:28:48.955Z,13.80
2023-03-10T11:30:26.059Z,13.90
2023-03-10T11:32:05.718Z,13.90
2023-03-10T11:33:49.498Z,14.00
2023-03-10T11:35:25.290Z,14.10
2023-03-10T11:37:06.527Z,14.20
2023-03-10T11:38:42.325Z,14.20
2023-03-10T11:40:20.328Z,14.20
2023-03-10T11:42:00.556Z,14.20
2023-03-10T11:43:46.403Z,14.10
2023-03-10T11:45:28.871Z,14.00
2023-03-10T11:47:06.045Z,13.90
2023-03-10T11:48:49.041Z,14.00
2023-03-10T11:50:34.135Z,14.00
2023-03-10T11:52:11.624Z,13.90
2023-03-10T11:53:47.453Z,13.90
2023-03-10T11:55:22.604Z,13.90
2023-03-10T11:56:56.336Z,13.80
2023-03-10T11:58:40.315Z,13.70
2023-03-10T12:00:23.431Z,13.60
2023-03-10T12:02:01.791Z,13.60
2023-03-10T12:03:47.966Z,13.70
2023-03-10T12:05:23.503Z,13.70
2023-03-10T12:07:01.073Z,13.90
2023-03-10T12:08:36.164Z,14.00
2023-03-10T12:10:18.977Z,13.90
2023-03-10T12:11:53.757Z,13.90
2023-03-10T12:13:29.304Z,13.90
2023-03-10T12:15:05.874Z,14.00
2023-03-10T12:16:41.419Z,13.90
2023-03-10T12:18:14.524Z,13.90
2023-03-10T12:20:12.129Z,13.90
2023-03-10T12:21:47.704Z,13.90
2023-03-10T12:23:43.000Z,13.80
2023-03-10T12:25:44.576Z,13.80
2023-03-10T12:27:17.899Z,13.80
2023-03-10T12:29:10.797Z,13.90
2023-03-10T12:30:47.519Z,14.00
2023-03-10T12:32:41.530Z,14.10
2023-03-10T12:34:16.709Z,14.00
2023-03-10T12:35:54.891Z,14.10
2023-03-10T12:37:28.611Z,14.20
2023-03-10T12:39:02.729Z,14.30
2023-03-10T12:40:52.256Z,14.50
2023-03-10T12:42:33.272Z,14.70
2023-03-10T12:44:44.151Z,14.80
2023-03-10T12:46:20.475Z,14.80
2023-03-10T12:48:02.683Z,14.60
2023-03-10T12:49:38.966Z,14.50
2023-03-10T12:51:16.935Z,14.20
2023-03-10T12:52:58.636Z,13.90
2023-03-10T12:54:58.343Z,13.80
2023-03-10T12:56:40.835Z,13.80
2023-03-10T12:58:20.167Z,13.60
2023-03-10T13:00:01.027Z,13.50
2023-03-10T13:01:49.470Z,13.50
2023-03-10T13:03:31.379Z,13.50
2023-03-10T13:05:07.826Z,13.50
2023-03-10T13:06:42.460Z,13.60
2023-03-10T13:08:19.528Z,13.80
2023-03-10T13:09:53.964Z,13.90
2023-03-10T13:11:37.567Z,13.90
2023-03-10T13:13:17.661Z,13.90
2023-03-10T13:14:55.205Z,14.10
2023-03-10T13:16:28.281Z,14.10
2023-03-10T13:18:12.642Z,14.20
2023-03-10T13:19:57.147Z,14.40
2023-03-10T13:21:32.396Z,14.40
2023-03-10T13:23:07.452Z,14.30
2023-03-10T13:24:41.578Z,14.10
2023-03-10T13:26:17.323Z,14.10
2023-03-10T13:27:50.467Z,14.00
2023-03-10T13:29:23.383Z,13.80
2023-03-10T13:31:19.282Z,13.70
2023-03-10T13:32:56.722Z,13.60
2023-03-10T13:34:31.811Z,13.40
2023-03-10T13:36:22.149Z,13.20
2023-03-10T13:38:12.890Z,13.00
2023-03-10T13:39:46.067Z,13.00
2023-03-10T13:41:19.028Z,12.90
2023-03-10T13:42:51.957Z,12.90
2023-03-10T13:44:27.436Z,12.80
2023-03-10T13:46:01.534Z,12.80
2023-03-10T13:47:36.798Z,12.80
2023-03-10T13:49:14.693Z,12.80
2023-03-10T13:50:48.377Z,12.80
2023-03-10T13:52:23.651Z,12.80
2023-03-10T13:54:03.473Z,12.80
2023-03-10T13:55:41.730Z,12.80
2023-03-10T13:57:21.834Z,12.70
2023-03-10T13:58:58.133Z,12.70
2023-03-10T14:00:31.208Z,12.80
2023-03-10T14:02:05.483Z,12.80
2023-03-10T14:03:38.602Z,12.70
2023-03-10T14:05:38.348Z,12.50
2023-03-10T14:07:13.025Z,12.50
2023-03-10T14:08:45.960Z,12.30
2023-03-10T14:10:21.517Z,12.30
2023-03-10T14:11:54.443Z,12.20
2023-03-10T14:13:45.050Z,12.10
2023-03-10T14:15:25.973Z,12.00
2023-03-10T14:17:00.672Z,12.00
2023-03-10T14:18:36.983Z,12.10
2023-03-10T14:20:11.631Z,12.40
2023-03-10T14:22:00.032Z,12.60
2023-03-10T14:23:37.738Z,12.80
2023-03-10T14:25:14.233Z,12.80
2023-03-10T14:26:48.478Z,12.80
2023-03-10T14:28:26.152Z,12.80
2023-03-10T14:30:03.197Z,12.90
2023-03-10T14:31:36.103Z,12.80
2023-03-10T14:33:12.556Z,12.70
2023-03-10T14:34:45.728Z,12.60
2023-03-10T14:36:18.683Z,12.60
2023-03-10T14:37:52.922Z,12.60
2023-03-10T14:39:25.903Z,12.60
2023-03-10T14:40:58.921Z,12.60
2023-03-10T14:42:34.330Z,12.60
2023-03-10T14:44:07.461Z,12.70
2023-03-10T14:45:41.467Z,12.60
2023-03-10T14:47:14.759Z,12.60
2023-03-10T14:48:47.827Z,12.60
2023-03-10T14:50:21.979Z,12.50
2023-03-10T14:51:55.138Z,12.50
2023-03-10T14:53:30.938Z,12.40
2023-03-10T14:55:07.937Z,12.30
2023-03-10T14:56:40.796Z,12.20
2023-03-10T14:58:19.069Z,12.10
2023-03-10T14:59:52.053Z,12.10
2023-03-10T15:01:25.137Z,12.00
2023-03-10T15:02:58.426Z,12.00
2023-03-10T15:04:31.365Z,12.00
2023-03-10T15:06:04.307Z,11.90
2023-03-10T15:07:37.223Z,11.90
2023-03-10T15:09:10.202Z,11.80
2023-03-10T15:10:48.024Z,11.70
2023-03-10T15:12:21.284Z,11.60
2023-03-10T15:13:55.671Z,11.60
2023-03-10T15:15:34.482Z,11.60
2023-03-10T15:17:07.477Z,11.60
2023-03-10T15:18:40.374Z,11.70
2023-03-10T15:20:17.494Z,11.60
2023-03-10T15:21:50.610Z,11.60
2023-03-10T15:23:23.535Z,11.50
2023-03-10T15:24:56.426Z,11.40
2023-03-10T15:26:29.368Z,11.30
2023-03-10T15:28:02.406Z,11.20
2023-03-10T15:29:36.752Z,11.20
2023-03-10T15:31:09.760Z,11.10
2023-03-10T15:32:42.887Z,11.00
2023-03-10T15:34:15.932Z,11.00
2023-03-10T15:35:48.992Z,10.90
2023-03-10T15:37:22.070Z,10.80
2023-03-10T15:38:55.206Z,10.70
2023-03-10T15:40:30.082Z,10.70
2023-03-10T15:42:03.101Z,10.60
2023-03-10T15:43:36.014Z,10.60
2023-03-10T15:45:11.403Z,10.50
2023-03-10T15:46:45.968Z,10.40
2023-03-10T15:48:19.203Z,10.30
2023-03-10T15:49:52.219Z,10.20
2023-03-10T15:51:25.268Z,10.10
2023-03-10T15:52:59.885Z,10.00
2023-03-10T15:54:34.176Z,9.90
2023-03-10T15:56:08.040Z,9.80
2023-03-10T15:57:40.934Z,9.70
2023-03-10T15:59:13.817Z,9.70
2023-03-10T16:00:48.077Z,9.60
2023-03-10T16:02:21.129Z,9.60
2023-03-10T16:03:54.064Z,9.50
2023-03-10T16:05:27.038Z,9.50
2023-03-10T16:07:03.612Z,9.50
2023-03-10T16:08:38.851Z,9.50
2023-03-10T16:10:13.922Z,9.40
2023-03-10T16:11:46.887Z,9.40
2023-03-10T16:13:19.893Z,9.40
2023-03-10T16:14:52.753Z,9.40
2023-03-10T16:16:27.181Z,9.40
2023-03-10T16:18:00.181Z,9.30
2023-03-10T16:19:33.411Z,9.30
2023-03-10T16:21:06.923Z,9.30
2023-03-10T16:22:41.636Z,9.30
2023-03-10T16:24:14.712Z,9.30
2023-03-10T16:25:47.670Z,9.30
2023-03-10T16:27:20.578Z,9.40
2023-03-10T16:28:55.000Z,9.40
2023-03-10T16:30:28.132Z,9.40
2023-03-10T16:32:02.724Z,9.40
2023-03-10T16:33:36.124Z,9.40
2023-03-10T16:35:10.082Z,9.40
2023-03-10T16:36:43.046Z,9.50
2023-03-10T16:38:15.971Z,9.50
2023-03-10T16:39:48.888Z,9.50
2023-03-10T16:41:22.905Z,9.50
2023-03-10T16:42:55.952Z,9.50
2023-03-10T16:44:28.786Z,9.50
2023-03-10T16:46:08.772Z,9.60
2023-03-10T16:47:44.007Z,9.50
2023-03-10T16:49:18.101Z,9.50
2023-03-10T16:50:51.934Z,9.50
2023-03-10T16:52:24.959Z,9.40
2023-03-10T16:53:59.922Z,9.40
2023-03-10T16:55:32.796Z,9.40
2023-03-10T16:57:07.251Z,9.40
2023-03-10T16:58:40.193Z,9.40
2023-03-10T17:00:14.850Z,9.30
2023-03-10T17:01:47.872Z,9.30
2023-03-10T17:03:22.174Z,9.30
2023-03-10T17:04:55.338Z,9.20
2023-03-10T17:06:31.495Z,9.20
2023-03-10T17:08:06.009Z,9.20
2023-03-10T17:09:39.083Z,9.10
2023-03-10T17:11:19.560Z,9.10
2023-03-10T17:12:52.452Z,9.10
2023-03-10T17:14:25.876Z,9.10
2023-03-10T17:15:59.001Z,9.10
2023-03-10T17:17:32.503Z,9.00
2023-03-10T17:19:09.356Z,9.00
2023-03-10T17:20:42.213Z,9.00
2023-03-10T17:22:15.157Z,8.90
2023-03-10T17:23:48.783Z,8.90
2023-03-10T17:25:21.996Z,8.90
2023-03-10T17:26:55.058Z,8.80
2023-03-10T17:28:27.972Z,8.80
2023-03-10T17:30:01.428Z,8.80
2023-03-10T17:31:34.528Z,8.70
2023-03-10T17:33:07.500Z,8.70
2023-03-10T17:34:42.077Z,8.70
2023-03-10T17:36:16.752Z,8.70
2023-03-10T17:37:49.803Z,8.60
2023-03-10T17:39:23.938Z,8.60
2023-03-10T17:40:56.816Z,8.60
2023-03-10T17:42:30.793Z,8.50
2023-03-10T17:44:04.633Z,8.50
2023-03-10T17:45:37.636Z,8.40
2023-03-10T17:47:12.161Z,8.40
2023-03-10T17:48:45.723Z,8.40
2023-03-10T17:50:22.431Z,8.30
2023-03-10T17:51:55.387Z,8.30
2023-03-10T17:53:29.806Z,8.20
2023-03-10T17:55:02.805Z,8.20
2023-03-10T17:56:35.754Z,8.20
2023-03-10T17:58:08.597Z,8.10
2023-03-10T17:59:41.572Z,8.10
2023-03-10T18:01:17.085Z,8.10
2023-03-10T18:02:50.037Z,8.00
2023-03-10T18:04:23.090Z,8.00
2023-03-10T18:05:57.309Z,8.00
2023-03-10T18:07:30.253Z,8.00
2023-03-10T18:09:05.731Z,7.90
2023-03-10T18:10:38.899Z,7.90
2023-03-10T18:12:11.809Z,7.90
2023-03-10T18:13:44.754Z,7.90
2023-03-10T18:15:18.152Z,7.90
2023-03-10T18:16:51.006Z,7.90
2023-03-10T18:18:24.754Z,7.90
2023-03-10T18:19:58.667Z,7.90
2023-03-10T18:21:33.325Z,7.90
2023-03-10T18:23:06.323Z,7.90
2023-03-10T18:24:39.613Z,7.90
2023-03-10T18:26:14.216Z,7.90
2023-03-10T18:27:47.498Z,7.90
2023-03-10T18:29:20.427Z,7.90
2023-03-10T18:30:53.454Z,7.80
2023-03-10T18:32:27.308Z,7.90
2023-03-10T18:34:00.817Z,7.90
2023-03-10T18:35:33.751Z,7.80
2023-03-10T18:37:08.097Z,7.90
2023-03-10T18:38:41.221Z,7.90
2023-03-10T18:40:17.023Z,7.80
2023-03-10T18:41:49.989Z,7.80
2023-03-10T18:43:22.916Z,7.80
2023-03-10T18:44:56.375Z,7.90
2023-03-10T18:46:29.598Z,7.90
2023-03-10T18:48:02.843Z,7.90
2023-03-10T18:49:35.886Z,7.90
2023-03-10T18:51:09.148Z,7.90
2023-03-10T18:52:43.466Z,7.90
2023-03-10T18:54:16.417Z,7.90
2023-03-10T18:55:49.345Z,7.90
2023-03-10T18:57:22.172Z,7.80
2023-03-10T18:58:55.281Z,7.80
2023-03-10T19:00:28.409Z,7.80
2023-03-10T19:02:01.577Z,7.80
2023-03-10T19:03:34.527Z,7.80
2023-03-10T19:05:09.015Z,7.70
2023-03-10T19:06:41.943Z,7.80
2023-03-10T19:08:16.216Z,7.80
2023-03-10T19:09:54.176Z,7.80
2023-03-10T19:11:27.862Z,7.80
2023-03-10T19:13:00.906Z,7.80
2023-03-10T19:14:33.872Z,7.80
2023-03-10T19:16:08.010Z,7.80
2023-03-10T19:17:41.352Z,7.80
2023-03-10T19:19:14.329Z,7.80
2023-03-10T19:20:47.394Z,7.80
2023-03-10T19:22:20.381Z,7.80
2023-03-10T19:23:54.706Z,7.80
2023-03-10T19:25:27.693Z,7.80
2023-03-10T19:27:03.935Z,7.80
2023-03-10T19:28:37.763Z,7.70
2023-03-10T19:30:12.746Z,7.80
2023-03-10T19:31:45.788Z,7.80
2023-03-10T19:34:58.085Z,7.80
2023-03-10T19:36:30.953Z,7.70
2023-03-10T19:38:04.122Z,7.80
2023-03-10T19:39:38.357Z,7.70
2023-03-10T19:41:16.037Z,7.70
2023-03-10T19:42:48.929Z,7.70
2023-03-10T19:44:22.359Z,7.70
2023-03-10T19:45:59.783Z,7.60
2023-03-10T19:47:32.889Z,7.60
2023-03-10T19:49:06.895Z,7.60
2023-03-10T19:50:39.845Z,7.60
2023-03-10T19:52:12.746Z,7.50
2023-03-10T19:53:45.661Z,7.50
2023-03-10T19:55:23.424Z,7.50
2023-03-10T19:56:56.502Z,7.50
2023-03-10T19:58:29.470Z,7.40
2023-03-10T20:00:02.399Z,7.40
2023-03-10T20:01:36.922Z,7.30
2023-03-10T20:03:11.022Z,7.30
2023-03-10T20:04:44.491Z,7.30
2023-03-10T20:06:17.542Z,7.30
2023-03-10T20:07:50.416Z,7.30
2023-03-10T20:09:24.563Z,7.30
2023-03-10T20:11:02.075Z,7.20
2023-03-10T20:12:34.994Z,7.20
2023-03-10T20:14:08.465Z,7.20
2023-03-10T20:15:41.295Z,7.20
2023-03-10T20:17:14.182Z,7.20
2023-03-10T20:18:47.382Z,7.10
2023-03-10T20:20:21.383Z,7.10
2023-03-10T20:21:54.247Z,7.10
2023-03-10T20:23:27.360Z,7.10
2023-03-10T20:25:00.804Z,7.10
2023-03-10T20:26:35.130Z,7.10
2023-03-10T20:28:08.524Z,7.10
2023-03-10T20:29:41.294Z,7.10
2023-03-10T20:31:16.576Z,7.10
2023-03-10T20:32:49.598Z,7.10
2023-03-10T20:34:22.641Z,7.10
2023-03-10T20:35:56.162Z,7.10
2023-03-10T20:37:29.082Z,7.10
2023-03-10T20:39:02.052Z,7.00
2023-03-10T20:40:36.584Z,7.00
2023-03-10T20:42:10.811Z,7.10
2023-03-10T20:43:44.639Z,7.00
2023-03-10T20:45:17.705Z,7.00
2023-03-10T20:46:50.862Z,7.00
2023-03-10T20:48:23.812Z,7.10
2023-03-10T20:49:57.355Z,7.00
2023-03-10T20:51:30.252Z,7.00